Time;durP1;ratioP1;P1;durP2;ratioP2;P2;SDS_P1;SDS_P2;PMS_P1;PMS_P2;Temp;Humidity;BMP_temperature;BMP_pressure;BME280_temperature;BME280_humidity;BME280_pressure;Samples;Min_cycle;Max_cycle;Signal;HPM_P1;HPM_P2
2021/11/17 02:29:45;;;;;;;;;;;6.50;99.90;;;;;;8416706;28;19931;-74
2021/11/17 02:34:11;;;;;;;;;;;6.50;99.90;;;;;;8438580;28;20276;-74
2021/11/17 02:38:31;;;;;;;;;;;6.60;99.90;;;;;;8427210;28;19924;-73
2021/11/17 02:42:36;;;;;;;;;;;6.60;99.90;;;;;;8423248;28;19928;-73
2021/11/17 02:46:50;;;;;;;;;;;6.60;99.90;;;;;;8435840;28;19927;-73
2021/11/17 02:51:02;;;;;;;;;;;6.50;99.90;;;;;;8444243;28;19920;-74
2021/11/17 02:55:10;;;;;;;;;;;6.50;99.90;;;;;;8418225;28;19920;-74
2021/11/17 02:59:21;;;;;;;;;;;6.50;99.90;;;;;;8415862;28;19921;-74
2021/11/17 03:03:32;;;;;;;;;;;6.50;99.90;;;;;;8426032;28;19923;-73
2021/11/17 03:07:37;;;;;;;;;;;6.60;99.90;;;;;;8422707;28;19924;-74
2021/11/17 03:11:54;;;;;;;;;;;6.60;99.90;;;;;;8420676;28;19920;-73
2021/11/17 03:16:14;;;;;;;;;;;6.60;99.90;;;;;;8421313;28;19920;-73
2021/11/17 03:20:38;;;;;;;;;;;6.60;99.90;;;;;;8426884;28;19931;-73
2021/11/17 03:25:05;;;;;;;;;;;6.60;99.90;;;;;;8437916;28;19920;-74
2021/11/17 03:29:15;;;;;;;;;;;6.60;99.90;;;;;;8434603;28;20015;-73
2021/11/17 03:33:25;;;;;;;;;;;6.60;99.90;;;;;;8432568;28;19954;-74
2021/11/17 03:37:27;;;;;;;;;;;6.60;99.90;;;;;;8432437;28;20335;-74
2021/11/17 03:41:35;;;;;;;;;;;6.60;99.90;;;;;;8429703;28;19924;-74
2021/11/17 03:45:42;;;;;;;;;;;6.60;99.90;;;;;;8427474;28;19920;-73
2021/11/17 03:50:03;;;;;;;;;;;6.60;99.90;;;;;;8433544;28;19923;-73
2021/11/17 03:54:08;;;;;;;;;;;6.60;99.90;;;;;;8427928;28;19923;-73
2021/11/17 03:58:19;;;;;;;;;;;6.60;99.90;;;;;;8418876;28;20684;-73
2021/11/17 04:02:36;;;;;;;;;;;6.70;99.90;;;;;;8434172;28;19924;-74
2021/11/17 04:06:47;;;;;;;;;;;6.70;99.90;;;;;;8440527;27;19920;-74
2021/11/17 04:11:00;;;;;;;;;;;6.70;99.90;;;;;;8424937;28;19949;-73
2021/11/17 04:15:11;;;;;;;;;;;6.70;99.90;;;;;;8423830;28;20536;-73
2021/11/17 04:19:25;;;;;;;;;;;6.70;99.90;;;;;;8427141;28;19927;-73
2021/11/17 04:23:26;;;;;;;;;;;6.70;99.90;;;;;;8421792;28;19924;-73
2021/11/17 04:27:35;;;;;;;;;;;6.70;99.90;;;;;;8419437;28;19943;-73
2021/11/17 04:31:43;;;;;;;;;;;6.70;99.90;;;;;;8408444;28;19920;-73
2021/11/17 04:35:48;;;;;;;;;;;6.70;99.90;;;;;;8434391;28;19946;-74
2021/11/17 04:39:49;;;;;;;;;;;6.70;99.90;;;;;;8430192;28;20267;-73
2021/11/17 04:44:15;;;;;;;;;;;6.70;99.90;;;;;;8431448;28;19920;-74
2021/11/17 04:48:29;;;;;;;;;;;6.60;99.90;;;;;;8429218;28;19920;-73
2021/11/17 04:52:50;;;;;;;;;;;6.60;99.90;;;;;;8433076;28;20255;-74
2021/11/17 04:57:02;;;;;;;;;;;6.60;99.90;;;;;;8438136;28;21525;-74
2021/11/17 05:01:10;;;;;;;;;;;6.50;99.90;;;;;;8432423;27;20034;-74
2021/11/17 05:05:21;;;;;;;;;;;6.50;99.90;;;;;;8426021;28;19973;-71
2021/11/17 05:09:42;;;;;;;;;;;6.50;99.90;;;;;;8432239;28;19930;-71
2021/11/17 05:14:14;;;;;;;;;;;6.50;99.90;;;;;;8415713;28;19920;-72
2021/11/17 05:18:31;;;;;;;;;;;6.60;99.90;;;;;;8445149;27;19924;-71
2021/11/17 05:22:48;;;;;;;;;;;6.60;99.90;;;;;;8427905;28;20007;-72
2021/11/17 05:27:05;;;;;;;;;;;6.60;99.90;;;;;;8411267;28;19921;-71
2021/11/17 05:31:07;;;;;;;;;;;6.70;99.90;;;;;;8449968;27;20375;-71
2021/11/17 05:35:24;;;;;;;;;;;6.70;99.90;;;;;;8426448;28;19920;-71
2021/11/17 05:39:26;;;;;;;;;;;6.70;99.90;;;;;;8424990;28;19924;-71
2021/11/17 05:43:38;;;;;;;;;;;6.70;99.90;;;;;;8415562;28;19920;-71
2021/11/17 05:48:19;;;;;;;;;;;6.80;99.90;;;;;;8449546;27;19924;-72
2021/11/17 05:52:23;;;;;;;;;;;6.80;99.90;;;;;;8316228;28;19921;-72
2021/11/17 05:56:30;;;;;;;;;;;6.80;99.90;;;;;;8355563;28;20481;-71
2021/11/17 06:00:51;;;;;;;;;;;6.80;99.90;;;;;;8410197;28;20292;-74
2021/11/17 06:04:53;;;;;;;;;;;6.80;99.90;;;;;;8418850;28;20331;-73
2021/11/17 06:08:55;;;;;;;;;;;6.90;99.90;;;;;;8418223;28;19928;-74
2021/11/17 06:12:57;;;;;;;;;;;6.90;99.90;;;;;;8421657;28;20785;-73
2021/11/17 06:17:22;;;;;;;;;;;6.90;99.90;;;;;;8404370;28;19928;-74
2021/11/17 06:21:24;;;;;;;;;;;7.00;99.90;;;;;;8410192;28;19927;-74
2021/11/17 06:25:26;;;;;;;;;;;7.00;99.90;;;;;;8407337;28;20573;-73
2021/11/17 06:29:31;;;;;;;;;;;7.00;99.90;;;;;;8413187;28;19935;-74
2021/11/17 06:33:33;;;;;;;;;;;7.00;99.90;;;;;;8409455;28;19924;-73
2021/11/17 06:37:37;;;;;;;;;;;7.00;99.90;;;;;;8421668;28;20382;-74
2021/11/17 06:41:39;;;;;;;;;;;7.10;99.90;;;;;;8402664;28;19927;-74
2021/11/17 06:45:42;;;;;;;;;;;7.10;99.90;;;;;;8409351;28;19920;-73
2021/11/17 06:49:44;;;;;;;;;;;7.10;99.90;;;;;;8411599;28;19927;-74
2021/11/17 06:53:45;;;;;;;;;;;7.20;99.90;;;;;;8413631;28;19923;-74
2021/11/17 06:57:47;;;;;;;;;;;7.20;99.90;;;;;;8407603;28;19927;-73
2021/11/17 07:01:49;;;;;;;;;;;7.20;99.90;;;;;;8413444;28;19995;-73
2021/11/17 07:05:52;;;;;;;;;;;7.20;99.90;;;;;;8450488;27;20027;-73
2021/11/17 07:09:53;;;;;;;;;;;7.20;99.90;;;;;;8409852;28;19924;-73
2021/11/17 07:13:55;;;;;;;;;;;7.30;99.90;;;;;;8414684;28;19985;-74
2021/11/17 07:17:57;;;;;;;;;;;7.30;99.90;;;;;;8426944;28;19946;-74
2021/11/17 07:22:00;;;;;;;;;;;7.30;99.90;;;;;;8423461;28;19920;-75
2021/11/17 07:26:02;;;;;;;;;;;7.40;99.90;;;;;;8425746;28;19920;-74
2021/11/17 07:30:06;;;;;;;;;;;7.40;99.90;;;;;;8420843;28;19927;-73
2021/11/17 07:34:08;;;;;;;;;;;7.40;99.90;;;;;;8422975;28;19920;-73
2021/11/17 07:38:11;;;;;;;;;;;7.50;99.90;;;;;;8423367;28;19932;-74
2021/11/17 07:42:13;;;;;;;;;;;7.50;99.90;;;;;;8422723;28;19920;-74
2021/11/17 07:46:14;;;;;;;;;;;7.50;99.90;;;;;;8427639;28;20333;-74
2021/11/17 07:50:16;;;;;;;;;;;7.60;99.90;;;;;;8417083;28;19950;-74
2021/11/17 07:54:19;;;;;;;;;;;7.60;99.90;;;;;;8415395;28;19943;-74
2021/11/17 07:58:22;;;;;;;;;;;7.60;99.90;;;;;;8397399;28;19920;-74
2021/11/17 08:02:25;;;;;;;;;;;7.70;99.90;;;;;;8415363;28;20363;-74
2021/11/17 08:06:27;;;;;;;;;;;7.70;99.90;;;;;;8404549;28;20379;-74
2021/11/17 08:10:54;;;;;;;;;;;7.70;99.90;;;;;;8402201;28;20279;-74
2021/11/17 08:14:57;;;;;;;;;;;7.80;99.90;;;;;;8404276;28;19924;-74
2021/11/17 08:18:58;;;;;;;;;;;7.80;99.90;;;;;;8404837;28;19920;-74
2021/11/17 08:23:00;;;;;;;;;;;7.80;99.90;;;;;;8402947;28;20417;-74
2021/11/17 08:27:02;;;;;;;;;;;7.80;99.90;;;;;;8404811;28;19921;-74
2021/11/17 08:31:03;;;;;;;;;;;7.80;99.90;;;;;;8402809;28;20382;-74
2021/11/17 08:35:06;;;;;;;;;;;7.90;99.90;;;;;;8402385;28;19985;-74
2021/11/17 08:39:09;;;;;;;;;;;8.00;99.90;;;;;;8401623;28;20277;-74
2021/11/17 08:43:11;;;;;;;;;;;8.00;99.90;;;;;;8394402;28;20282;-74
2021/11/17 08:47:16;;;;;;;;;;;8.00;99.90;;;;;;8407899;28;19943;-74
2021/11/17 08:51:21;;;;;;;;;;;8.00;99.90;;;;;;8407159;28;19928;-74
2021/11/17 08:55:26;;;;;;;;;;;8.10;99.90;;;;;;8398286;28;19920;-74
2021/11/17 08:59:28;;;;;;;;;;;8.10;99.90;;;;;;8415352;28;19931;-71
2021/11/17 09:03:30;;;;;;;;;;;8.10;99.90;;;;;;8404881;28;19921;-71
2021/11/17 09:07:31;;;;;;;;;;;8.10;99.90;;;;;;8402334;28;19920;-72
2021/11/17 09:11:34;;;;;;;;;;;8.20;99.90;;;;;;8400557;28;19920;-72
2021/11/17 09:15:38;;;;;;;;;;;8.20;99.90;;;;;;8414237;28;19932;-72
2021/11/17 09:19:47;;;;;;;;;;;8.30;99.90;;;;;;8398939;28;19924;-71
2021/11/17 09:23:53;;;;;;;;;;;8.30;99.90;;;;;;8398214;28;20390;-72
2021/11/17 09:27:55;;;;;;;;;;;8.40;99.90;;;;;;8398394;28;19920;-71
2021/11/17 09:31:57;;;;;;;;;;;8.50;99.90;;;;;;8396992;28;19977;-71
2021/11/17 09:35:58;;;;;;;;;;;8.60;99.90;;;;;;8399956;28;19934;-71
2021/11/17 09:40:00;;;;;;;;;;;8.60;99.90;;;;;;8398301;28;19928;-71
2021/11/17 09:44:04;;;;;;;;;;;8.70;99.90;;;;;;8400094;28;19946;-72
2021/11/17 09:48:10;;;;;;;;;;;8.70;99.90;;;;;;8396402;28;19984;-71
2021/11/17 09:52:17;;;;;;;;;;;8.80;99.90;;;;;;8403705;28;19928;-72
2021/11/17 09:56:30;;;;;;;;;;;8.80;99.90;;;;;;8399305;28;19923;-71
2021/11/17 10:00:53;;;;;;;;;;;8.90;99.90;;;;;;8414966;28;19924;-72
2021/11/17 10:05:35;;;;;;;;;;;8.90;99.90;;;;;;8412035;27;19966;-72
2021/11/17 10:13:58;;;;;;;;;;;9.10;99.90;;;;;;8403391;28;19920;-73
2021/11/17 10:18:21;;;;;;;;;;;9.20;99.90;;;;;;8397202;28;19924;-72
2021/11/17 10:22:23;;;;;;;;;;;9.30;99.90;;;;;;8401561;28;20272;-72
2021/11/17 10:26:25;;;;;;;;;;;9.40;99.90;;;;;;8402650;28;19974;-72
2021/11/17 10:30:31;;;;;;;;;;;9.50;99.90;;;;;;8406626;28;19924;-72
2021/11/17 10:34:35;;;;;;;;;;;9.70;99.90;;;;;;8408253;28;19920;-72
2021/11/17 10:38:42;;;;;;;;;;;9.80;99.90;;;;;;8402713;28;19928;-72
2021/11/17 10:42:44;;;;;;;;;;;9.90;99.90;;;;;;8409841;28;19925;-72
2021/11/17 10:46:55;;;;;;;;;;;10.00;99.90;;;;;;8404693;28;19927;-74
2021/11/17 10:51:15;;;;;;;;;;;10.10;99.90;;;;;;8405227;28;19928;-75
2021/11/17 10:55:36;;;;;;;;;;;10.20;99.90;;;;;;8404707;28;19981;-72
2021/11/17 10:59:38;;;;;;;;;;;10.20;99.90;;;;;;8407610;28;20371;-72
2021/11/17 11:04:00;;;;;;;;;;;10.40;99.90;;;;;;8409938;28;19982;-72
2021/11/17 11:08:13;;;;;;;;;;;10.50;99.90;;;;;;8404598;28;24434;-72
2021/11/17 11:12:16;;;;;;;;;;;10.70;99.90;;;;;;8422890;27;19920;-72
2021/11/17 11:16:20;;;;;;;;;;;10.90;99.90;;;;;;8407875;28;19924;-72
2021/11/17 11:20:24;;;;;;;;;;;11.00;99.90;;;;;;8420201;27;20390;-72
2021/11/17 11:24:26;;;;;;;;;;;11.00;99.90;;;;;;8419062;28;20587;-72
2021/11/17 11:28:28;;;;;;;;;;;11.10;99.90;;;;;;8404545;28;19935;-72
2021/11/17 11:32:30;;;;;;;;;;;11.10;99.90;;;;;;8398607;28;19935;-72
2021/11/17 11:36:33;;;;;;;;;;;11.20;99.90;;;;;;8404543;28;19935;-72
2021/11/17 11:40:54;;;;;;;;;;;11.30;99.90;;;;;;8432010;27;19920;-72
2021/11/17 11:44:58;;;;;;;;;;;11.70;99.90;;;;;;8401960;28;19924;-72
2021/11/17 11:49:18;;;;;;;;;;;12.20;99.90;;;;;;8401547;28;19928;-72
2021/11/17 11:53:48;;;;;;;;;;;12.40;99.90;;;;;;8412692;27;19928;-71
2021/11/17 11:57:52;;;;;;;;;;;12.40;99.90;;;;;;8400451;28;19924;-72
2021/11/17 12:02:05;;;;;;;;;;;12.30;99.90;;;;;;8402295;28;19928;-72
2021/11/17 12:06:15;;;;;;;;;;;12.30;99.90;;;;;;8406366;28;19924;-72
2021/11/17 12:10:19;;;;;;;;;;;12.30;99.90;;;;;;8402959;28;19965;-72
2021/11/17 12:14:37;;;;;;;;;;;12.30;99.90;;;;;;8406525;28;19997;-73
2021/11/17 12:18:55;;;;;;;;;;;12.80;99.90;;;;;;8405147;28;19928;-72
2021/11/17 12:22:57;;;;;;;;;;;13.80;99.90;;;;;;8412590;28;19927;-72
2021/11/17 12:27:02;;;;;;;;;;;14.30;99.90;;;;;;8405071;28;19924;-72
2021/11/17 12:31:06;;;;;;;;;;;14.50;99.90;;;;;;8393741;28;19928;-72
2021/11/17 12:35:33;;;;;;;;;;;14.50;99.90;;;;;;8401216;28;19967;-73
2021/11/17 12:39:55;;;;;;;;;;;14.50;99.90;;;;;;8405025;28;19927;-72
2021/11/17 12:44:01;;;;;;;;;;;14.40;99.90;;;;;;8405629;28;19931;-72
2021/11/17 12:48:25;;;;;;;;;;;14.40;99.90;;;;;;8401916;28;19934;-72
2021/11/17 12:53:05;;;;;;;;;;;14.50;99.90;;;;;;8400186;28;19935;-72
2021/11/17 12:57:11;;;;;;;;;;;14.90;99.90;;;;;;8392357;28;20311;-72
2021/11/17 13:01:34;;;;;;;;;;;15.30;99.90;;;;;;8398441;28;19920;-72
2021/11/17 13:05:40;;;;;;;;;;;15.40;99.90;;;;;;8399058;28;19928;-72
2021/11/17 13:09:42;;;;;;;11.90;2.70;;;15.40;99.90;;;;;;8417953;28;19931;-72
2021/11/17 13:13:50;;;;;;;;;;;15.10;99.90;;;;;;8399976;28;20406;-73
2021/11/17 13:17:52;;;;;;;;;;;14.50;99.90;;;;;;8395180;28;19935;-72
2021/11/17 13:21:55;;;;;;;;;;;14.00;99.90;;;;;;8393147;28;19924;-72
2021/11/17 13:26:09;;;;;;;;;;;13.40;99.90;;;;;;8403100;28;20372;-72
2021/11/17 13:30:20;;;;;;;;;;;13.00;99.90;;;;;;8396280;28;19970;-73
2021/11/17 13:34:42;;;;;;;;;;;12.70;99.90;;;;;;8398200;28;19936;-72
2021/11/17 13:38:57;;;;;;;;;;;12.50;99.90;;;;;;8398269;28;19932;-72
2021/11/17 13:43:13;;;;;;;;;;;12.40;99.90;;;;;;8397560;28;19928;-72
2021/11/17 13:47:17;;;;;;;;;;;12.30;99.90;;;;;;8396272;28;20360;-72
2021/11/17 13:51:21;;;;;;;;;;;12.20;99.90;;;;;;8396630;28;19935;-72
2021/11/17 13:55:25;;;;;;;;;;;12.20;99.90;;;;;;8397823;28;19932;-72
2021/11/17 13:59:27;;;;;;;;;;;12.30;99.90;;;;;;8402204;28;19928;-72
2021/11/17 14:03:31;;;;;;;;;;;12.50;99.90;;;;;;8394412;28;19932;-72
2021/11/17 14:07:33;;;;;;;;;;;12.60;99.90;;;;;;8396139;28;19958;-73
2021/11/17 14:11:35;;;;;;;;;;;12.80;99.90;;;;;;8400141;28;19932;-71
2021/11/17 14:15:38;;;;;;;;;;;12.90;99.90;;;;;;8395812;28;19932;-72
2021/11/17 14:19:39;;;;;;;;;;;13.00;99.90;;;;;;8396380;28;20368;-72
2021/11/17 14:23:41;;;;;;;;;;;13.10;99.90;;;;;;8399292;28;19925;-72
2021/11/17 14:27:45;;;;;;;;;;;13.20;99.90;;;;;;8397569;28;19925;-71
2021/11/17 14:31:53;;;;;;;;;;;13.40;99.90;;;;;;8408873;28;20391;-72
2021/11/17 14:35:55;;;;;;;;;;;13.90;99.90;;;;;;8399505;28;20291;-72
2021/11/17 14:39:57;;;;;;;;;;;14.70;99.90;;;;;;8397195;28;19939;-72
2021/11/17 14:43:59;;;;;;;;;;;15.30;99.90;;;;;;8400208;28;19924;-72
2021/11/17 14:48:01;;;;;;;;;;;15.90;99.90;;;;;;8397946;28;19929;-72
2021/11/17 14:52:04;;;;;;;;;;;16.30;99.90;;;;;;8392282;28;19946;-72
2021/11/17 14:56:06;;;;;;;;;;;16.50;99.90;;;;;;8398498;28;20038;-72
2021/11/17 15:00:10;;;;;;;;;;;16.40;99.90;;;;;;8398580;28;20372;-72
2021/11/17 15:04:12;;;;;;;;;;;16.10;99.90;;;;;;8396381;28;19940;-73
2021/11/17 15:08:15;;;;;;;;;;;15.80;99.90;;;;;;8397478;28;19931;-72
2021/11/17 15:12:18;;;;;;;;;;;15.40;99.90;;;;;;8400250;28;19937;-72
2021/11/17 15:16:20;;;;;;;;;;;15.10;99.90;;;;;;8398671;28;19974;-72
2021/11/17 15:20:22;;;;;;;;;;;14.70;99.90;;;;;;8400711;28;19924;-72
2021/11/17 15:24:24;;;;;;;;;;;14.50;99.90;;;;;;8405834;28;19924;-72
2021/11/17 15:28:27;;;;;;;;;;;14.30;99.90;;;;;;8401272;28;19932;-71
2021/11/17 15:32:30;;;;;;;;;;;14.00;99.90;;;;;;8408097;28;19947;-72
2021/11/17 15:36:31;;;;;;;;;;;13.60;99.90;;;;;;8407284;28;19949;-71
2021/11/17 15:40:35;;;;;;;;;;;13.20;99.90;;;;;;8401832;28;20027;-72
2021/11/17 15:44:36;;;;;;;;;;;12.80;99.90;;;;;;8402141;28;19931;-71
2021/11/17 15:48:38;;;;;;;;;;;12.50;99.90;;;;;;8403735;28;20551;-72
2021/11/17 15:52:40;;;;;;;;;;;12.20;99.90;;;;;;8401618;28;19932;-72
2021/11/17 15:56:42;;;;;;;;;;;11.90;99.90;;;;;;8401113;28;20217;-72
2021/11/17 16:00:43;;;;;;;;;;;11.70;99.90;;;;;;8409753;28;19925;-71
2021/11/17 16:04:45;;;;;;;;;;;11.50;99.90;;;;;;8403288;28;20030;-71
2021/11/17 16:08:47;;;;;;;;;;;11.40;99.90;;;;;;8394488;28;19955;-72
2021/11/17 16:12:50;;;;;;;;;;;11.30;99.90;;;;;;8401534;28;19928;-71
2021/11/17 16:16:52;;;;;;;;;;;11.20;99.90;;;;;;8402228;28;19935;-72
2021/11/17 16:20:58;;;;;;;;;;;11.10;99.90;;;;;;8401136;28;20027;-71
2021/11/17 16:29:20;;;;;;;;;;;11.00;99.90;;;;;;8401511;28;19932;-72
2021/11/17 16:33:23;;;;;;;;;;;10.90;99.90;;;;;;8403908;28;20035;-72
2021/11/17 16:37:25;;;;;;;;;;;10.80;99.90;;;;;;8396285;28;20042;-71
2021/11/17 16:41:26;;;;;;;;;;;10.70;99.90;;;;;;8401249;28;19993;-71
2021/11/17 16:45:28;;;;;;;;;;;10.70;99.90;;;;;;8404300;28;19932;-72
2021/11/17 16:49:33;;;;;;;;;;;10.50;99.90;;;;;;8402197;28;19950;-71
2021/11/17 16:53:35;;;;;;;;;;;10.50;99.90;;;;;;8398417;28;19976;-72
2021/11/17 16:58:07;;;;;;;;;;;10.30;99.90;;;;;;8393107;28;19948;-72
2021/11/17 17:02:09;;;;;;;;;;;10.20;99.90;;;;;;8393498;28;20072;-71
2021/11/17 17:06:12;;;;;;;;;;;10.20;99.90;;;;;;8414285;28;19934;-71
2021/11/17 17:10:18;;;;;;;;;;;10.00;99.90;;;;;;8399404;28;19970;-71
2021/11/17 17:14:20;;;;;;;;;;;10.00;99.90;;;;;;8400149;28;20091;-71
2021/11/17 17:18:22;;;;;;;;;;;10.00;99.90;;;;;;8400778;28;19928;-72
2021/11/17 17:22:25;;;;;;;;;;;9.90;99.90;;;;;;8404462;28;19968;-72
2021/11/17 17:26:27;;;;;;;;;;;9.90;99.90;;;;;;8401402;28;19936;-72
2021/11/17 17:30:28;;;;;;;;;;;9.80;99.90;;;;;;8405280;28;20744;-71
2021/11/17 17:34:31;;;;;;;;;;;9.80;99.90;;;;;;8397372;28;19933;-71
2021/11/17 17:38:33;;;;;;;;;;;9.70;99.90;;;;;;8390939;28;19932;-71
2021/11/17 17:42:34;;;;;;;;;;;9.60;99.90;;;;;;8394092;28;19978;-72
2021/11/17 17:46:36;;;;;;;;;;;9.40;99.90;;;;;;8395739;28;19932;-71
2021/11/17 17:50:38;;;;;;;;;;;9.30;99.90;;;;;;8396191;28;19959;-72
2021/11/17 17:54:41;;;;;;;;;;;9.20;99.90;;;;;;8394692;28;19980;-72
2021/11/17 17:58:43;;;;;;;;;;;9.10;99.90;;;;;;8380043;28;19951;-71
2021/11/17 18:02:45;;;;;;;;;;;9.10;99.90;;;;;;8409043;28;19928;-71
2021/11/17 18:06:46;;;;;;;;;;;9.10;99.90;;;;;;8411066;28;19930;-72
2021/11/17 18:10:49;;;;;;;;;;;9.10;99.90;;;;;;8397740;28;20233;-71
2021/11/17 18:14:51;;;;;;;;;;;9.10;99.90;;;;;;8397404;28;20383;-71
2021/11/17 18:18:53;;;;;;;;;;;9.10;99.90;;;;;;8396320;28;19939;-72
2021/11/17 18:22:54;;;;;;;;;;;9.00;99.90;;;;;;8396136;28;20415;-72
2021/11/17 18:27:06;;;;;;;;;;;9.00;99.90;;;;;;8393251;28;19929;-71
2021/11/17 18:31:10;;;;;;;;;;;9.00;99.90;;;;;;8400542;28;19939;-72
2021/11/17 18:35:12;;;;;;;;;;;8.90;99.90;;;;;;8430665;28;19956;-71
2021/11/17 18:39:15;;;;;;;;;;;8.90;99.90;;;;;;8410841;28;19981;-72
2021/11/17 18:43:17;;;;;;;;;;;8.90;99.90;;;;;;8392164;28;20033;-71
2021/11/17 18:47:20;;;;;;;;;;;8.90;99.90;;;;;;8399574;28;19955;-73
2021/11/17 18:51:22;;;;;;;;;;;8.80;99.90;;;;;;8420911;28;20001;-72
2021/11/17 18:55:25;;;;;;;;;;;8.80;99.90;;;;;;8402554;28;19924;-71
2021/11/17 18:59:27;;;;;;;;;;;8.70;99.90;;;;;;8401836;28;19982;-71
2021/11/17 19:03:29;;;;;;;;;;;8.60;99.90;;;;;;8427121;28;19924;-71
2021/11/17 19:07:30;;;;;;;;;;;8.60;99.90;;;;;;8411234;28;20307;-70
2021/11/17 19:11:52;;;;;;;;;;;8.50;99.90;;;;;;8405173;28;19928;-72
2021/11/17 19:15:54;;;;;;;;;;;8.50;99.90;;;;;;8403900;28;19928;-71
2021/11/17 19:19:56;;;;;;;;;;;8.40;99.90;;;;;;8395998;28;20376;-71
2021/11/17 19:23:58;;;;;;;;;;;8.40;99.90;;;;;;8403540;28;20004;-72
2021/11/17 19:27:59;;;;;;;;;;;8.40;99.90;;;;;;8397885;28;20326;-72
2021/11/17 19:32:01;;;;;;;;;;;8.30;99.90;;;;;;8402292;28;19932;-72
2021/11/17 19:36:04;;;;;;;;;;;8.30;99.90;;;;;;8401125;28;20372;-72
2021/11/17 19:40:08;;;;;;;;;;;8.30;99.90;;;;;;8394592;28;19928;-72
2021/11/17 19:44:10;;;;;;;;;;;8.30;99.90;;;;;;8396768;28;19924;-72
2021/11/17 19:48:12;;;;;;;;;;;8.30;99.90;;;;;;8393860;28;20026;-72
2021/11/17 19:52:19;;;;;;;;;;;8.30;99.90;;;;;;8403571;28;19932;-71
2021/11/17 19:56:21;;;;;;;;;;;8.20;99.90;;;;;;8408284;28;19945;-72
2021/11/17 20:00:25;;;;;;;;;;;8.10;99.90;;;;;;8405722;28;19939;-72
2021/11/17 20:04:27;;;;;;;;;;;8.10;99.90;;;;;;8393489;28;20380;-72
2021/11/17 20:08:29;;;;;;;;;;;8.00;99.90;;;;;;8394256;28;19925;-72
2021/11/17 20:12:32;;;;;;;;;;;8.00;99.90;;;;;;8393546;28;19951;-72
2021/11/17 20:16:35;;;;;;;;;;;7.90;99.90;;;;;;8404615;28;19924;-72
2021/11/17 20:20:37;;;;;;;;;;;7.90;99.90;;;;;;8389411;28;19947;-72
2021/11/17 20:24:39;;;;;;;;;;;7.80;99.90;;;;;;8395638;28;19924;-71
2021/11/17 20:28:44;;;;;;;;;;;7.80;99.90;;;;;;8397976;28;19939;-72
2021/11/17 20:32:46;;;;;;;;;;;7.70;99.90;;;;;;8401443;28;19985;-71
2021/11/17 20:36:48;;;;;;;;;;;7.70;99.90;;;;;;8400793;28;19935;-72
2021/11/17 20:40:50;;;;;;;;;;;7.50;99.90;;;;;;8404690;28;19924;-72
2021/11/17 20:44:52;;;;;;;;;;;7.40;99.90;;;;;;8405642;28;19959;-73
2021/11/17 20:48:54;;;;;;;;;;;7.40;99.90;;;;;;8430617;27;19924;-72
2021/11/17 20:52:56;;;;;;;;;;;7.40;99.90;;;;;;8404984;28;19928;-71
2021/11/17 20:56:58;;;;;;;;;;;7.50;99.90;;;;;;8422235;28;19924;-72
2021/11/17 21:01:09;;;;;;;;;;;7.50;99.90;;;;;;8401903;28;19929;-71
2021/11/17 21:05:12;;;;;;;;;;;7.50;99.90;;;;;;8417467;27;19925;-72
2021/11/17 21:09:14;;;;;;;;;;;7.50;99.90;;;;;;8404012;28;19928;-71
2021/11/17 21:13:17;;;;;;;;;;;7.50;99.90;;;;;;8405008;28;19947;-71
2021/11/17 21:17:18;;;;;;;;;;;7.50;99.90;;;;;;8400963;28;19928;-71
2021/11/17 21:21:22;;;;;;;;;;;7.50;99.90;;;;;;8405800;28;19924;-72
2021/11/17 21:25:26;;;;;;;;;;;7.50;99.90;;;;;;8399028;28;19928;-71
2021/11/17 21:29:27;;;;;;;;;;;7.60;99.90;;;;;;8408561;28;19965;-72
2021/11/17 21:33:29;;;;;;;;;;;7.60;99.90;;;;;;8402183;28;19947;-72
2021/11/17 21:37:31;;;;;;;;;;;7.70;99.90;;;;;;8416444;28;19924;-71
2021/11/17 21:41:33;;;;;;;;;;;7.70;99.90;;;;;;8399521;28;19947;-72
2021/11/17 21:45:35;;;;;;;;;;;7.80;99.90;;;;;;8405744;28;19931;-72
2021/11/17 21:49:49;;;;;;;;;;;7.80;99.90;;;;;;8406026;28;19928;-72
2021/11/17 21:53:51;;;;;;;;;;;7.80;99.90;;;;;;8404149;28;19978;-72
2021/11/17 21:57:53;;;;;;;;;;;7.80;99.90;;;;;;8403998;28;19928;-71
2021/11/17 22:01:55;;;;;;;;;;;7.80;99.90;;;;;;8408802;28;19931;-72
2021/11/17 22:05:57;;;;;;;;;;;7.70;99.90;;;;;;8424725;28;19989;-72
2021/11/17 22:09:58;;;;;;;;;;;7.70;99.90;;;;;;8433511;28;19935;-72
2021/11/17 22:14:00;;;;;;;;;;;7.70;99.90;;;;;;8431776;28;19931;-72
2021/11/17 22:18:03;;;;;;;;;;;7.70;99.90;;;;;;8426335;28;19935;-72
2021/11/17 22:22:04;;;;;;;;;;;7.70;99.90;;;;;;8439412;28;20395;-72
2021/11/17 22:26:09;;;;;;;;;;;7.70;99.90;;;;;;8422142;28;19924;-72
2021/11/17 22:30:11;;;;;;;;;;;7.70;99.90;;;;;;8422700;28;19932;-71
2021/11/17 22:34:16;;;;;;;;;;;7.60;99.90;;;;;;8425455;28;19928;-72
2021/11/17 22:38:19;;;;;;;;;;;7.60;99.90;;;;;;8425948;28;19932;-72
2021/11/17 22:42:21;;;;;;;;;;;7.50;99.90;;;;;;8419490;28;19948;-71
2021/11/17 22:46:22;;;;;;;;;;;7.50;99.90;;;;;;8423341;28;20026;-72
2021/11/17 22:50:25;;;;;;;;;;;7.50;99.90;;;;;;8434934;28;19924;-71
2021/11/17 22:54:27;;;;;;;;;;;7.40;99.90;;;;;;8422114;28;19928;-72
2021/11/17 22:58:29;;;;;;;;;;;7.40;99.90;;;;;;8424595;28;19935;-72
2021/11/17 23:02:31;;;;;;;;;;;7.40;99.90;;;;;;8421531;28;20276;-71
2021/11/17 23:06:34;;;;;;;;;;;7.40;99.90;;;;;;8414856;28;20390;-72
2021/11/17 23:10:36;;;;;;;;;;;7.30;99.90;;;;;;8457526;28;19942;-71
2021/11/17 23:14:38;;;;;;;;;;;7.30;99.90;;;;;;8421957;28;20284;-71
2021/11/17 23:18:40;;;;;;;;;;;7.40;99.90;;;;;;8428249;28;19931;-72
2021/11/17 23:22:43;;;;;;;;;;;7.40;99.90;;;;;;8426433;28;19931;-72
2021/11/17 23:26:45;;;;;;;;;;;7.40;99.90;;;;;;8426062;28;19924;-71
2021/11/17 23:30:47;;;;;;;;;;;7.40;99.90;;;;;;8417187;28;19925;-72
2021/11/17 23:34:49;;;;;;;;;;;7.30;99.90;;;;;;8430238;28;19928;-71
2021/11/17 23:38:51;;;;;;;;;;;7.30;99.90;;;;;;8433029;28;19924;-71
2021/11/17 23:42:52;;;;;;;;;;;7.30;99.90;;;;;;8432402;28;19927;-72
2021/11/17 23:46:58;;;;;;;;;;;7.30;99.90;;;;;;8436646;28;20319;-73
2021/11/17 23:51:01;;;;;;;;;;;7.30;99.90;;;;;;8440843;28;19956;-72
2021/11/17 23:55:03;;;;;;;;;;;7.30;99.90;;;;;;8438750;28;19949;-72
2021/11/17 23:59:06;;;;;;;;;;;7.20;99.90;;;;;;8424704;28;19950;-72
